sensor_id;sensor_type;location;lat;lon;timestamp;pressure;altitude;pressure_sealevel;temperature;humidity
3524;BME280;1776;53.330;11.498;2022-10-16T00:00:42;53871.44;;;-147.39;75.92
3524;BME280;1776;53.330;11.498;2022-10-16T00:03:08;53877.59;;;-147.39;76.09
3524;BME280;1776;53.330;11.498;2022-10-16T00:05:39;53875.53;;;-147.39;76.61
3524;BME280;1776;53.330;11.498;2022-10-16T00:08:05;53859.16;;;-147.39;76.10
3524;BME280;1776;53.330;11.498;2022-10-16T00:10:30;53871.44;;;-147.39;75.81
3524;BME280;1776;53.330;11.498;2022-10-16T00:12:55;53889.88;;;-147.39;76.02
3524;BME280;1776;53.330;11.498;2022-10-16T00:15:21;53896.03;;;-147.39;76.40
3524;BME280;1776;53.330;11.498;2022-10-16T00:17:46;53881.69;;;-147.39;76.50
3524;BME280;1776;53.330;11.498;2022-10-16T00:20:11;53885.78;;;-147.39;75.55
3524;BME280;1776;53.330;11.498;2022-10-16T00:22:36;53889.88;;;-147.39;75.62
3524;BME280;1776;53.330;11.498;2022-10-16T00:25:02;53826.38;;;-147.39;75.75
3524;BME280;1776;53.330;11.498;2022-10-16T00:27:27;53859.16;;;-147.39;75.79
3524;BME280;1776;53.330;11.498;2022-10-16T00:29:53;53871.44;;;-147.39;75.71
3524;BME280;1776;53.330;11.498;2022-10-16T00:32:19;53867.34;;;-147.39;76.37
3524;BME280;1776;53.330;11.498;2022-10-16T00:34:45;53910.38;;;-147.39;76.76
3524;BME280;1776;53.330;11.498;2022-10-16T00:37:11;53865.31;;;-147.39;76.42
3524;BME280;1776;53.330;11.498;2022-10-16T00:39:37;53855.06;;;-147.39;76.29
3524;BME280;1776;53.330;11.498;2022-10-16T00:42:02;53883.75;;;-147.39;76.13
3524;BME280;1776;53.330;11.498;2022-10-16T00:47:26;53863.25;;;-147.39;75.66
3524;BME280;1776;53.330;11.498;2022-10-16T00:49:58;53887.84;;;-147.39;75.90
3524;BME280;1776;53.330;11.498;2022-10-16T00:52:25;53883.75;;;-147.39;75.85
3524;BME280;1776;53.330;11.498;2022-10-16T00:54:52;53863.25;;;-147.39;75.89
3524;BME280;1776;53.330;11.498;2022-10-16T00:57:18;53918.56;;;-147.39;75.87
3524;BME280;1776;53.330;11.498;2022-10-16T00:59:44;54045.59;;;-147.39;76.00
3524;BME280;1776;53.330;11.498;2022-10-16T01:02:13;53883.75;;;-147.39;75.93
3524;BME280;1776;53.330;11.498;2022-10-16T01:04:44;53900.13;;;-147.39;76.21
3524;BME280;1776;53.330;11.498;2022-10-16T01:07:20;53896.03;;;-147.39;76.21
3524;BME280;1776;53.330;11.498;2022-10-16T01:12:42;53883.75;;;-147.39;76.05
3524;BME280;1776;53.330;11.498;2022-10-16T01:15:18;53887.84;;;-147.39;75.81
3524;BME280;1776;53.330;11.498;2022-10-16T01:17:53;53902.19;;;-147.39;75.83
3524;BME280;1776;53.330;11.498;2022-10-16T01:20:27;53871.44;;;-147.39;75.94
3524;BME280;1776;53.330;11.498;2022-10-16T01:23:15;53887.84;;;-147.39;75.84
3524;BME280;1776;53.330;11.498;2022-10-16T01:28:34;53908.31;;;-147.39;75.37
3524;BME280;1776;53.330;11.498;2022-10-16T01:31:02;54047.63;;;-147.39;75.41
3524;BME280;1776;53.330;11.498;2022-10-16T01:33:39;53863.25;;;-147.39;75.87
3524;BME280;1776;53.330;11.498;2022-10-16T01:36:11;53869.41;;;-147.39;76.04
3524;BME280;1776;53.330;11.498;2022-10-16T01:38:39;53914.47;;;-147.39;75.92
3524;BME280;1776;53.330;11.498;2022-10-16T01:41:12;53889.88;;;-147.39;75.87
3524;BME280;1776;53.330;11.498;2022-10-16T01:43:43;53928.81;;;-147.39;75.96
3524;BME280;1776;53.330;11.498;2022-10-16T01:46:13;53885.78;;;-147.39;75.74
3524;BME280;1776;53.330;11.498;2022-10-16T01:48:41;53900.13;;;-147.39;75.44
3524;BME280;1776;53.330;11.498;2022-10-16T01:51:10;53891.94;;;-147.39;75.36
3524;BME280;1776;53.330;11.498;2022-10-16T01:53:37;53986.19;;;-147.39;75.15
3524;BME280;1776;53.330;11.498;2022-10-16T01:56:06;53937.00;;;-147.39;75.33
3524;BME280;1776;53.330;11.498;2022-10-16T01:58:36;53908.31;;;-147.39;74.91
3524;BME280;1776;53.330;11.498;2022-10-16T02:01:04;53885.78;;;-147.39;74.30
3524;BME280;1776;53.330;11.498;2022-10-16T02:03:34;53914.47;;;-147.39;74.32
3524;BME280;1776;53.330;11.498;2022-10-16T02:06:01;53916.50;;;-147.39;73.90
3524;BME280;1776;53.330;11.498;2022-10-16T02:08:28;53918.56;;;-147.39;73.90
3524;BME280;1776;53.330;11.498;2022-10-16T02:10:56;53922.66;;;-147.39;73.50
3524;BME280;1776;53.330;11.498;2022-10-16T02:13:28;53889.88;;;-147.39;73.35
3524;BME280;1776;53.330;11.498;2022-10-16T02:15:54;53912.41;;;-147.39;72.81
3524;BME280;1776;53.330;11.498;2022-10-16T02:18:20;53898.06;;;-147.39;72.48
3524;BME280;1776;53.330;11.498;2022-10-16T02:20:53;53881.69;;;-147.39;72.16
3524;BME280;1776;53.330;11.498;2022-10-16T02:23:28;53893.97;;;-147.39;72.08
3524;BME280;1776;53.330;11.498;2022-10-16T02:25:56;53877.59;;;-147.39;71.63
3524;BME280;1776;53.330;11.498;2022-10-16T02:28:31;53918.56;;;-147.39;71.51
3524;BME280;1776;53.330;11.498;2022-10-16T02:31:04;53898.06;;;-147.39;71.27
3524;BME280;1776;53.330;11.498;2022-10-16T02:33:33;53926.75;;;-147.39;71.27
3524;BME280;1776;53.330;11.498;2022-10-16T02:36:00;53910.38;;;-147.39;71.78
3524;BME280;1776;53.330;11.498;2022-10-16T02:38:26;53922.66;;;-147.39;71.89
3524;BME280;1776;53.330;11.498;2022-10-16T02:40:52;53850.97;;;-147.39;71.46
3524;BME280;1776;53.330;11.498;2022-10-16T02:43:18;53893.97;;;-147.39;71.42
3524;BME280;1776;53.330;11.498;2022-10-16T02:45:44;53887.84;;;-147.39;71.19
3524;BME280;1776;53.330;11.498;2022-10-16T02:48:09;53967.72;;;-147.39;70.90
3524;BME280;1776;53.330;11.498;2022-10-16T02:50:34;53883.75;;;-147.39;70.58
3524;BME280;1776;53.330;11.498;2022-10-16T02:53:00;53818.19;;;-147.39;70.38
3524;BME280;1776;53.330;11.498;2022-10-16T02:55:26;54039.44;;;-147.39;70.20
3524;BME280;1776;53.330;11.498;2022-10-16T02:57:53;53865.31;;;-147.39;70.22
3524;BME280;1776;53.330;11.498;2022-10-16T03:00:19;53908.31;;;-147.39;69.97
3524;BME280;1776;53.330;11.498;2022-10-16T03:02:45;53896.03;;;-147.39;69.86
3524;BME280;1776;53.330;11.498;2022-10-16T03:05:11;53908.31;;;-147.39;69.74
3524;BME280;1776;53.330;11.498;2022-10-16T03:07:37;53904.22;;;-147.39;69.89
3524;BME280;1776;53.330;11.498;2022-10-16T03:10:03;53910.38;;;-147.39;69.90
3524;BME280;1776;53.330;11.498;2022-10-16T03:12:29;53906.28;;;-147.39;69.80
3524;BME280;1776;53.330;11.498;2022-10-16T03:14:55;53906.28;;;-147.39;69.73
3524;BME280;1776;53.330;11.498;2022-10-16T03:17:21;53926.75;;;-147.39;69.66
3524;BME280;1776;53.330;11.498;2022-10-16T03:19:47;53914.47;;;-147.39;69.63
3524;BME280;1776;53.330;11.498;2022-10-16T03:22:12;53904.22;;;-147.39;69.48
3524;BME280;1776;53.330;11.498;2022-10-16T03:24:37;53918.56;;;-147.39;69.74
3524;BME280;1776;53.330;11.498;2022-10-16T03:27:03;53937.00;;;-147.39;69.88
3524;BME280;1776;53.330;11.498;2022-10-16T03:29:28;53904.22;;;-147.39;70.77
3524;BME280;1776;53.330;11.498;2022-10-16T03:31:55;53918.56;;;-147.39;70.68
3524;BME280;1776;53.330;11.498;2022-10-16T03:34:20;53926.75;;;-147.39;70.56
3524;BME280;1776;53.330;11.498;2022-10-16T03:36:46;53904.22;;;-147.39;71.44
3524;BME280;1776;53.330;11.498;2022-10-16T03:39:11;53920.63;;;-147.39;71.23
3524;BME280;1776;53.330;11.498;2022-10-16T03:41:36;53918.56;;;-147.39;71.39
3524;BME280;1776;53.330;11.498;2022-10-16T03:44:01;53904.22;;;-147.39;71.31
3524;BME280;1776;53.330;11.498;2022-10-16T03:46:27;53920.63;;;-147.39;71.54
3524;BME280;1776;53.330;11.498;2022-10-16T03:48:52;53924.72;;;-147.39;71.81
3524;BME280;1776;53.330;11.498;2022-10-16T03:51:17;53941.09;;;-147.39;72.05
3524;BME280;1776;53.330;11.498;2022-10-16T03:53:42;53934.97;;;-147.39;71.72
3524;BME280;1776;53.330;11.498;2022-10-16T03:56:08;53934.97;;;-147.39;71.62
3524;BME280;1776;53.330;11.498;2022-10-16T03:58:33;53912.41;;;-147.39;71.76
3524;BME280;1776;53.330;11.498;2022-10-16T04:00:58;53922.66;;;-147.39;71.74
3524;BME280;1776;53.330;11.498;2022-10-16T04:03:24;53953.41;;;-147.39;72.28
3524;BME280;1776;53.330;11.498;2022-10-16T04:05:49;53947.25;;;-147.39;72.25
3524;BME280;1776;53.330;11.498;2022-10-16T04:08:15;53932.91;;;-147.39;72.07
3524;BME280;1776;53.330;11.498;2022-10-16T04:10:42;53980.03;;;-147.39;72.77
3524;BME280;1776;53.330;11.498;2022-10-16T04:13:08;54102.97;;;-147.39;72.48
3524;BME280;1776;53.330;11.498;2022-10-16T04:15:33;53934.97;;;-147.39;72.54
3524;BME280;1776;53.330;11.498;2022-10-16T04:17:58;53922.66;;;-147.39;72.49
3524;BME280;1776;53.330;11.498;2022-10-16T04:20:24;53947.25;;;-147.39;72.75
3524;BME280;1776;53.330;11.498;2022-10-16T04:22:49;53937.00;;;-147.39;72.39
3524;BME280;1776;53.330;11.498;2022-10-16T04:25:14;53930.84;;;-147.39;72.40
3524;BME280;1776;53.330;11.498;2022-10-16T04:27:39;53924.72;;;-147.39;72.39
3524;BME280;1776;53.330;11.498;2022-10-16T04:30:05;53930.84;;;-147.39;72.27
3524;BME280;1776;53.330;11.498;2022-10-16T04:32:30;53961.59;;;-147.39;72.43
3524;BME280;1776;53.330;11.498;2022-10-16T04:34:56;53932.91;;;-147.39;72.37
3524;BME280;1776;53.330;11.498;2022-10-16T04:37:25;54084.53;;;-147.39;71.92
3524;BME280;1776;53.330;11.498;2022-10-16T04:39:51;53941.09;;;-147.39;72.32
3524;BME280;1776;53.330;11.498;2022-10-16T04:42:16;53945.19;;;-147.39;71.91
3524;BME280;1776;53.330;11.498;2022-10-16T04:44:42;53961.59;;;-147.39;71.93
3524;BME280;1776;53.330;11.498;2022-10-16T04:47:07;53965.69;;;-147.39;71.76
3524;BME280;1776;53.330;11.498;2022-10-16T04:49:33;53930.84;;;-147.39;71.14
3524;BME280;1776;53.330;11.498;2022-10-16T04:51:58;53957.50;;;-147.39;70.91
3524;BME280;1776;53.330;11.498;2022-10-16T04:54:23;53955.44;;;-147.39;70.85
3524;BME280;1776;53.330;11.498;2022-10-16T04:56:48;53937.00;;;-147.39;70.97
3524;BME280;1776;53.330;11.498;2022-10-16T04:59:16;53926.75;;;-147.39;70.89
3524;BME280;1776;53.330;11.498;2022-10-16T05:01:42;54039.44;;;-147.39;70.37
3524;BME280;1776;53.330;11.498;2022-10-16T05:04:07;53963.63;;;-147.39;70.26
3524;BME280;1776;53.330;11.498;2022-10-16T05:06:33;53904.22;;;-147.39;70.13
3524;BME280;1776;53.330;11.498;2022-10-16T05:08:58;53945.19;;;-147.39;70.20
3524;BME280;1776;53.330;11.498;2022-10-16T05:11:23;53932.91;;;-147.39;70.05
3524;BME280;1776;53.330;11.498;2022-10-16T05:13:48;53969.78;;;-147.39;69.70
3524;BME280;1776;53.330;11.498;2022-10-16T05:16:14;53932.91;;;-147.39;70.17
3524;BME280;1776;53.330;11.498;2022-10-16T05:18:39;53971.84;;;-147.39;70.09
3524;BME280;1776;53.330;11.498;2022-10-16T05:21:05;53945.19;;;-147.39;70.49
3524;BME280;1776;53.330;11.498;2022-10-16T05:23:31;53943.16;;;-147.39;70.54
3524;BME280;1776;53.330;11.498;2022-10-16T05:25:57;53965.69;;;-147.39;70.62
3524;BME280;1776;53.330;11.498;2022-10-16T05:28:24;53932.91;;;-147.39;70.92
3524;BME280;1776;53.330;11.498;2022-10-16T05:30:49;53920.63;;;-147.39;70.66
3524;BME280;1776;53.330;11.498;2022-10-16T05:33:15;53963.63;;;-147.39;70.87
3524;BME280;1776;53.330;11.498;2022-10-16T05:35:40;53928.81;;;-147.39;70.89
3524;BME280;1776;53.330;11.498;2022-10-16T05:38:05;53924.72;;;-147.39;70.54
3524;BME280;1776;53.330;11.498;2022-10-16T05:40:31;53926.75;;;-147.39;70.58
3524;BME280;1776;53.330;11.498;2022-10-16T05:42:56;53959.53;;;-147.39;70.68
3524;BME280;1776;53.330;11.498;2022-10-16T05:45:21;53957.50;;;-147.39;70.42
3524;BME280;1776;53.330;11.498;2022-10-16T05:47:46;53982.06;;;-147.39;70.28
3524;BME280;1776;53.330;11.498;2022-10-16T05:50:12;53934.97;;;-147.39;70.24
3524;BME280;1776;53.330;11.498;2022-10-16T05:52:37;54023.06;;;-147.39;70.45
3524;BME280;1776;53.330;11.498;2022-10-16T05:55:03;53949.28;;;-147.39;70.77
3524;BME280;1776;53.330;11.498;2022-10-16T05:57:28;53943.16;;;-147.39;70.79
3524;BME280;1776;53.330;11.498;2022-10-16T05:59:53;53947.25;;;-147.39;70.54
3524;BME280;1776;53.330;11.498;2022-10-16T06:02:19;53941.09;;;-147.39;70.66
3524;BME280;1776;53.330;11.498;2022-10-16T06:04:44;53939.06;;;-147.39;71.12
3524;BME280;1776;53.330;11.498;2022-10-16T06:07:09;53961.59;;;-147.39;70.87
3524;BME280;1776;53.330;11.498;2022-10-16T06:09:35;53969.78;;;-147.39;70.76
3524;BME280;1776;53.330;11.498;2022-10-16T06:12:00;53973.88;;;-147.39;70.49
3524;BME280;1776;53.330;11.498;2022-10-16T06:14:25;53937.00;;;-147.39;70.62
3524;BME280;1776;53.330;11.498;2022-10-16T06:16:51;53947.25;;;-147.39;70.13
3524;BME280;1776;53.330;11.498;2022-10-16T06:19:16;53961.59;;;-147.39;69.73
3524;BME280;1776;53.330;11.498;2022-10-16T06:21:42;53924.72;;;-147.39;69.78
3524;BME280;1776;53.330;11.498;2022-10-16T06:24:08;53945.19;;;-147.39;69.84
3524;BME280;1776;53.330;11.498;2022-10-16T06:26:33;53941.09;;;-147.39;70.17
3524;BME280;1776;53.330;11.498;2022-10-16T06:28:59;54047.63;;;-147.39;70.49
3524;BME280;1776;53.330;11.498;2022-10-16T06:31:25;53937.00;;;-147.39;70.70
3524;BME280;1776;53.330;11.498;2022-10-16T06:33:53;53967.72;;;-147.39;70.39
3524;BME280;1776;53.330;11.498;2022-10-16T06:36:19;53939.06;;;-147.39;70.65
3524;BME280;1776;53.330;11.498;2022-10-16T06:38:44;53961.59;;;-147.39;70.96
3524;BME280;1776;53.330;11.498;2022-10-16T06:41:16;53941.09;;;-147.39;71.04
3524;BME280;1776;53.330;11.498;2022-10-16T06:43:42;53949.28;;;-147.39;71.44
3524;BME280;1776;53.330;11.498;2022-10-16T06:46:09;53953.41;;;-147.39;71.06
3524;BME280;1776;53.330;11.498;2022-10-16T06:48:35;53955.44;;;-147.39;71.67
3524;BME280;1776;53.330;11.498;2022-10-16T06:51:06;53969.78;;;-147.39;71.45
3524;BME280;1776;53.330;11.498;2022-10-16T06:53:33;53953.41;;;-147.39;71.38
3524;BME280;1776;53.330;11.498;2022-10-16T06:56:10;53971.84;;;-147.39;71.28
3524;BME280;1776;53.330;11.498;2022-10-16T06:58:36;53949.28;;;-147.39;71.40
3524;BME280;1776;53.330;11.498;2022-10-16T07:01:01;53961.59;;;-147.39;71.57
3524;BME280;1776;53.330;11.498;2022-10-16T07:03:26;54014.84;;;-147.39;71.67
3524;BME280;1776;53.330;11.498;2022-10-16T07:05:52;53928.81;;;-147.39;72.07
3524;BME280;1776;53.330;11.498;2022-10-16T07:08:17;53957.50;;;-147.39;71.76
3524;BME280;1776;53.330;11.498;2022-10-16T07:10:42;53947.25;;;-147.39;71.64
3524;BME280;1776;53.330;11.498;2022-10-16T07:13:07;53951.34;;;-147.39;71.82
3524;BME280;1776;53.330;11.498;2022-10-16T07:15:33;53949.28;;;-147.39;72.13
3524;BME280;1776;53.330;11.498;2022-10-16T07:17:59;53934.97;;;-147.39;72.16
3524;BME280;1776;53.330;11.498;2022-10-16T07:20:24;53953.41;;;-147.39;72.21
3524;BME280;1776;53.330;11.498;2022-10-16T07:22:49;53961.59;;;-147.39;71.90
3524;BME280;1776;53.330;11.498;2022-10-16T07:25:15;53926.75;;;-147.39;71.44
3524;BME280;1776;53.330;11.498;2022-10-16T07:27:40;53994.38;;;-147.39;71.63
3524;BME280;1776;53.330;11.498;2022-10-16T07:30:06;53959.53;;;-147.39;71.96
3524;BME280;1776;53.330;11.498;2022-10-16T07:32:31;53939.06;;;-147.39;71.99
3524;BME280;1776;53.330;11.498;2022-10-16T07:34:57;54000.50;;;-147.39;71.94
3524;BME280;1776;53.330;11.498;2022-10-16T07:37:22;53961.59;;;-147.39;71.51
3524;BME280;1776;53.330;11.498;2022-10-16T07:39:47;54006.66;;;-147.39;71.39
3524;BME280;1776;53.330;11.498;2022-10-16T07:42:13;53951.34;;;-147.39;71.86
3524;BME280;1776;53.330;11.498;2022-10-16T07:44:38;53932.91;;;-147.39;71.93
3524;BME280;1776;53.330;11.498;2022-10-16T07:47:03;53949.28;;;-147.39;71.41
3524;BME280;1776;53.330;11.498;2022-10-16T07:49:29;53949.28;;;-147.39;71.91
3524;BME280;1776;53.330;11.498;2022-10-16T07:51:54;53930.84;;;-147.39;71.41
3524;BME280;1776;53.330;11.498;2022-10-16T07:54:19;53908.31;;;-147.39;70.60
3524;BME280;1776;53.330;11.498;2022-10-16T07:56:44;53924.72;;;-147.39;68.93
3524;BME280;1776;53.330;11.498;2022-10-16T07:59:10;53857.09;;;-147.39;61.98
3524;BME280;1776;53.330;11.498;2022-10-16T08:01:35;53816.13;;;-147.39;58.57
3524;BME280;1776;53.330;11.498;2022-10-16T08:04:01;53781.31;;;-147.39;56.32
3524;BME280;1776;53.330;11.498;2022-10-16T08:06:26;53736.22;;;-147.39;52.57
3524;BME280;1776;53.330;11.498;2022-10-16T08:08:51;53754.66;;;-147.39;52.11
3524;BME280;1776;53.330;11.498;2022-10-16T08:11:17;53826.38;;;-147.39;51.49
3524;BME280;1776;53.330;11.498;2022-10-16T08:13:42;53744.44;;;-147.39;53.51
3524;BME280;1776;53.330;11.498;2022-10-16T08:16:08;53795.66;;;-147.39;55.98
3524;BME280;1776;53.330;11.498;2022-10-16T08:18:35;53779.25;;;-147.39;55.18
3524;BME280;1776;53.330;11.498;2022-10-16T08:21:01;53814.09;;;-147.39;57.25
3524;BME280;1776;53.330;11.498;2022-10-16T08:23:27;53830.47;;;-147.39;58.98
3524;BME280;1776;53.330;11.498;2022-10-16T08:25:53;53824.31;;;-147.39;58.79
3524;BME280;1776;53.330;11.498;2022-10-16T08:28:19;53732.13;;;-147.39;52.93
3524;BME280;1776;53.330;11.498;2022-10-16T08:30:45;53723.94;;;-147.39;52.44
3524;BME280;1776;53.330;11.498;2022-10-16T08:33:10;53762.88;;;-147.39;53.62
3524;BME280;1776;53.330;11.498;2022-10-16T08:35:36;53818.19;;;-147.39;55.28
3524;BME280;1776;53.330;11.498;2022-10-16T08:38:05;53777.22;;;-147.39;54.13
3524;BME280;1776;53.330;11.498;2022-10-16T08:40:33;53769.00;;;-147.39;53.64
3524;BME280;1776;53.330;11.498;2022-10-16T08:48:53;53562.09;;;-147.39;41.19
3524;BME280;1776;53.330;11.498;2022-10-16T08:51:22;53549.81;;;-147.39;40.94
3524;BME280;1776;53.330;11.498;2022-10-16T08:53:52;53592.81;;;-147.39;40.37
3524;BME280;1776;53.330;11.498;2022-10-16T08:56:19;53521.13;;;-147.39;40.53
3524;BME280;1776;53.330;11.498;2022-10-16T08:58:46;53560.06;;;-147.39;40.51
3524;BME280;1776;53.330;11.498;2022-10-16T09:01:14;53514.97;;;-147.39;39.62
3524;BME280;1776;53.330;11.498;2022-10-16T09:03:53;53588.72;;;-147.39;42.49
3524;BME280;1776;53.330;11.498;2022-10-16T09:06:42;53603.06;;;-147.39;42.00
3524;BME280;1776;53.330;11.498;2022-10-16T09:09:48;53586.69;;;-147.39;41.16
3524;BME280;1776;53.330;11.498;2022-10-16T09:15:14;53580.53;;;-147.39;43.53
3524;BME280;1776;53.330;11.498;2022-10-16T09:18:15;53584.63;;;-147.39;43.23
3524;BME280;1776;53.330;11.498;2022-10-16T09:21:00;53572.34;;;-147.39;42.50
3524;BME280;1776;53.330;11.498;2022-10-16T09:23:28;53553.91;;;-147.39;41.63
3524;BME280;1776;53.330;11.498;2022-10-16T09:25:55;53529.31;;;-147.39;41.77
3524;BME280;1776;53.330;11.498;2022-10-16T09:28:22;53541.63;;;-147.39;42.00
3524;BME280;1776;53.330;11.498;2022-10-16T09:30:48;53553.91;;;-147.39;41.39
3524;BME280;1776;53.330;11.498;2022-10-16T09:33:15;53578.50;;;-147.39;43.25
3524;BME280;1776;53.330;11.498;2022-10-16T09:35:44;53543.66;;;-147.39;42.10
3524;BME280;1776;53.330;11.498;2022-10-16T09:38:27;53594.88;;;-147.39;43.89
3524;BME280;1776;53.330;11.498;2022-10-16T09:40:55;53592.81;;;-147.39;45.20
3524;BME280;1776;53.330;11.498;2022-10-16T09:46:03;53693.22;;;-147.39;49.65
3524;BME280;1776;53.330;11.498;2022-10-16T09:48:43;53670.69;;;-147.39;50.84
3524;BME280;1776;53.330;11.498;2022-10-16T09:51:21;53691.16;;;-147.39;51.84
3524;BME280;1776;53.330;11.498;2022-10-16T09:53:47;53736.22;;;-147.39;52.15
3524;BME280;1776;53.330;11.498;2022-10-16T09:56:22;53723.94;;;-147.39;52.20
3524;BME280;1776;53.330;11.498;2022-10-16T09:58:53;53726.00;;;-147.39;52.22
3524;BME280;1776;53.330;11.498;2022-10-16T10:01:19;53707.56;;;-147.39;52.42
3524;BME280;1776;53.330;11.498;2022-10-16T10:03:45;53719.84;;;-147.39;51.51
3524;BME280;1776;53.330;11.498;2022-10-16T10:06:28;53705.50;;;-147.39;52.57
3524;BME280;1776;53.330;11.498;2022-10-16T10:09:02;53746.47;;;-147.39;51.75
3524;BME280;1776;53.330;11.498;2022-10-16T10:11:39;53752.63;;;-147.39;53.57
3524;BME280;1776;53.330;11.498;2022-10-16T10:14:08;53920.63;;;-147.39;54.54
3524;BME280;1776;53.330;11.498;2022-10-16T10:16:39;53736.22;;;-147.39;55.38
3524;BME280;1776;53.330;11.498;2022-10-16T10:19:04;53777.22;;;-147.39;55.20
3524;BME280;1776;53.330;11.498;2022-10-16T10:21:32;53760.81;;;-147.39;55.77
3524;BME280;1776;53.330;11.498;2022-10-16T10:23:57;53742.38;;;-147.39;54.58
3524;BME280;1776;53.330;11.498;2022-10-16T10:26:27;53789.50;;;-147.39;55.31
3524;BME280;1776;53.330;11.498;2022-10-16T10:32:23;53793.59;;;-147.39;54.01
3524;BME280;1776;53.330;11.498;2022-10-16T10:40:21;53766.97;;;-147.39;54.39
3524;BME280;1776;53.330;11.498;2022-10-16T10:45:47;53777.22;;;-147.39;52.95
3524;BME280;1776;53.330;11.498;2022-10-16T10:50:52;53752.63;;;-147.39;51.84
3524;BME280;1776;53.330;11.498;2022-10-16T10:59:19;53736.22;;;-147.39;50.68
3524;BME280;1776;53.330;11.498;2022-10-16T11:07:17;53742.38;;;-147.39;50.44
3524;BME280;1776;53.330;11.498;2022-10-16T11:10:28;53736.22;;;-147.39;50.26
3524;BME280;1776;53.330;11.498;2022-10-16T11:12:49;53723.94;;;-147.39;49.37
3524;BME280;1776;53.330;11.498;2022-10-16T11:15:21;53730.09;;;-147.39;48.50
3524;BME280;1776;53.330;11.498;2022-10-16T11:20:28;53723.94;;;-147.39;49.50
3524;BME280;1776;53.330;11.498;2022-10-16T11:23:18;53730.09;;;-147.39;49.47
3524;BME280;1776;53.330;11.498;2022-10-16T11:25:48;53742.38;;;-147.39;49.66
3524;BME280;1776;53.330;11.498;2022-10-16T11:28:18;53756.72;;;-147.39;49.99
3524;BME280;1776;53.330;11.498;2022-10-16T11:31:08;53769.00;;;-147.39;50.25
3524;BME280;1776;53.330;11.498;2022-10-16T11:34:02;53742.38;;;-147.39;50.59
3524;BME280;1776;53.330;11.498;2022-10-16T11:37:03;53752.63;;;-147.39;50.77
3524;BME280;1776;53.330;11.498;2022-10-16T11:39:27;53744.44;;;-147.39;49.91
3524;BME280;1776;53.330;11.498;2022-10-16T11:42:03;53752.63;;;-147.39;49.79
3524;BME280;1776;53.330;11.498;2022-10-16T11:55:47;53738.28;;;-147.39;47.42
3524;BME280;1776;53.330;11.498;2022-10-16T11:58:24;53742.38;;;-147.39;46.92
3524;BME280;1776;53.330;11.498;2022-10-16T12:03:46;53707.56;;;-147.39;46.85
3524;BME280;1776;53.330;11.498;2022-10-16T12:06:30;53748.53;;;-147.39;47.17
3524;BME280;1776;53.330;11.498;2022-10-16T12:08:59;53719.84;;;-147.39;47.60
3524;BME280;1776;53.330;11.498;2022-10-16T12:16:51;53756.72;;;-147.39;47.63
3524;BME280;1776;53.330;11.498;2022-10-16T12:19:17;53707.56;;;-147.39;48.11
3524;BME280;1776;53.330;11.498;2022-10-16T12:21:43;53723.94;;;-147.39;47.73
3524;BME280;1776;53.330;11.498;2022-10-16T12:24:33;53719.84;;;-147.39;48.17
3524;BME280;1776;53.330;11.498;2022-10-16T12:26:59;53719.84;;;-147.39;48.21
3524;BME280;1776;53.330;11.498;2022-10-16T12:29:35;53748.53;;;-147.39;47.25
3524;BME280;1776;53.330;11.498;2022-10-16T12:32:04;53754.66;;;-147.39;47.04
3524;BME280;1776;53.330;11.498;2022-10-16T12:34:42;53726.00;;;-147.39;46.60
3524;BME280;1776;53.330;11.498;2022-10-16T12:37:34;53717.78;;;-147.39;47.03
3524;BME280;1776;53.330;11.498;2022-10-16T12:40:12;53740.31;;;-147.39;46.07
3524;BME280;1776;53.330;11.498;2022-10-16T12:42:38;53715.75;;;-147.39;46.77
3524;BME280;1776;53.330;11.498;2022-10-16T12:45:33;53709.59;;;-147.39;46.47
3524;BME280;1776;53.330;11.498;2022-10-16T12:48:01;53728.03;;;-147.39;46.66
3524;BME280;1776;53.330;11.498;2022-10-16T12:50:34;53826.38;;;-147.39;46.59
3524;BME280;1776;53.330;11.498;2022-10-16T12:53:01;53752.63;;;-147.39;47.16
3524;BME280;1776;53.330;11.498;2022-10-16T12:55:35;53709.59;;;-147.39;47.40
3524;BME280;1776;53.330;11.498;2022-10-16T13:01:04;53728.03;;;-147.39;47.44
3524;BME280;1776;53.330;11.498;2022-10-16T13:19:23;53738.28;;;-147.39;47.24
3524;BME280;1776;53.330;11.498;2022-10-16T13:21:59;53750.56;;;-147.39;46.86
3524;BME280;1776;53.330;11.498;2022-10-16T13:24:51;53721.88;;;-147.39;46.73
3524;BME280;1776;53.330;11.498;2022-10-16T13:27:43;53740.31;;;-147.39;46.69
3524;BME280;1776;53.330;11.498;2022-10-16T13:30:20;53744.44;;;-147.39;46.99
3524;BME280;1776;53.330;11.498;2022-10-16T13:32:48;53713.69;;;-147.39;46.80
3524;BME280;1776;53.330;11.498;2022-10-16T13:35:20;53695.25;;;-147.39;46.67
3524;BME280;1776;53.330;11.498;2022-10-16T13:37:45;53740.31;;;-147.39;46.94
3524;BME280;1776;53.330;11.498;2022-10-16T13:40:24;53707.56;;;-147.39;46.46
3524;BME280;1776;53.330;11.498;2022-10-16T13:42:50;53726.00;;;-147.39;47.06
3524;BME280;1776;53.330;11.498;2022-10-16T13:45:22;53734.19;;;-147.39;47.15
3524;BME280;1776;53.330;11.498;2022-10-16T13:47:48;53738.28;;;-147.39;46.89
3524;BME280;1776;53.330;11.498;2022-10-16T13:50:16;53719.84;;;-147.39;46.67
3524;BME280;1776;53.330;11.498;2022-10-16T13:52:42;53719.84;;;-147.39;46.80
3524;BME280;1776;53.330;11.498;2022-10-16T13:55:13;53754.66;;;-147.39;46.85
3524;BME280;1776;53.330;11.498;2022-10-16T13:57:38;53793.59;;;-147.39;46.94
3524;BME280;1776;53.330;11.498;2022-10-16T14:00:18;53742.38;;;-147.39;46.73
3524;BME280;1776;53.330;11.498;2022-10-16T14:02:43;53748.53;;;-147.39;47.13
3524;BME280;1776;53.330;11.498;2022-10-16T14:05:09;53711.66;;;-147.39;46.69
3524;BME280;1776;53.330;11.498;2022-10-16T14:07:36;53736.22;;;-147.39;47.06
3524;BME280;1776;53.330;11.498;2022-10-16T14:10:05;53734.19;;;-147.39;47.07
3524;BME280;1776;53.330;11.498;2022-10-16T14:12:31;53707.56;;;-147.39;47.09
3524;BME280;1776;53.330;11.498;2022-10-16T14:14:58;53754.66;;;-147.39;46.85
3524;BME280;1776;53.330;11.498;2022-10-16T14:17:30;53726.00;;;-147.39;47.47
3524;BME280;1776;53.330;11.498;2022-10-16T14:19:58;53744.44;;;-147.39;47.62
3524;BME280;1776;53.330;11.498;2022-10-16T14:25:40;53721.88;;;-147.39;47.33
3524;BME280;1776;53.330;11.498;2022-10-16T14:30:35;53719.84;;;-147.39;46.57